sensor_id;sensor_type;location;lat;lon;timestamp;temperature;humidity
32322;DHT22;61553;48.994;8.940;2022-12-22T00:01:14;10.00;99.90
32322;DHT22;61553;48.994;8.940;2022-12-22T00:03:58;10.00;99.90
32322;DHT22;61553;48.994;8.940;2022-12-22T00:06:43;10.00;99.90
32322;DHT22;61553;48.994;8.940;2022-12-22T00:09:27;10.00;99.90
32322;DHT22;61553;48.994;8.940;2022-12-22T00:12:12;10.00;99.90
32322;DHT22;61553;48.994;8.940;2022-12-22T00:14:57;9.90;99.90
32322;DHT22;61553;48.994;8.940;2022-12-22T00:17:42;10.10;99.90
32322;DHT22;61553;48.994;8.940;2022-12-22T00:20:26;10.10;99.90
32322;DHT22;61553;48.994;8.940;2022-12-22T00:23:10;10.30;99.90
32322;DHT22;61553;48.994;8.940;2022-12-22T00:25:57;10.40;99.90
32322;DHT22;61553;48.994;8.940;2022-12-22T00:28:42;10.40;99.90
32322;DHT22;61553;48.994;8.940;2022-12-22T00:31:27;10.50;99.90
32322;DHT22;61553;48.994;8.940;2022-12-22T00:34:17;10.50;99.90
32322;DHT22;61553;48.994;8.940;2022-12-22T00:37:01;10.40;99.90
32322;DHT22;61553;48.994;8.940;2022-12-22T00:39:45;10.50;99.90
32322;DHT22;61553;48.994;8.940;2022-12-22T00:42:29;10.50;99.90
32322;DHT22;61553;48.994;8.940;2022-12-22T00:45:13;10.60;99.90
32322;DHT22;61553;48.994;8.940;2022-12-22T00:47:58;10.70;99.90
32322;DHT22;61553;48.994;8.940;2022-12-22T00:50:42;10.70;99.90
32322;DHT22;61553;48.994;8.940;2022-12-22T00:53:27;10.70;99.90
32322;DHT22;61553;48.994;8.940;2022-12-22T00:56:11;10.60;99.90
32322;DHT22;61553;48.994;8.940;2022-12-22T00:58:56;10.60;99.90
32322;DHT22;61553;48.994;8.940;2022-12-22T01:01:41;10.60;99.90
32322;DHT22;61553;48.994;8.940;2022-12-22T01:04:25;10.60;99.90
32322;DHT22;61553;48.994;8.940;2022-12-22T01:07:11;10.50;99.90
32322;DHT22;61553;48.994;8.940;2022-12-22T01:09:56;10.50;99.90
32322;DHT22;61553;48.994;8.940;2022-12-22T01:12:41;10.50;99.90
32322;DHT22;61553;48.994;8.940;2022-12-22T01:15:26;10.40;99.90
32322;DHT22;61553;48.994;8.940;2022-12-22T01:18:11;10.50;99.90
32322;DHT22;61553;48.994;8.940;2022-12-22T01:20:56;10.40;99.90
32322;DHT22;61553;48.994;8.940;2022-12-22T01:23:40;10.40;99.90
32322;DHT22;61553;48.994;8.940;2022-12-22T01:26:25;10.40;99.90
32322;DHT22;61553;48.994;8.940;2022-12-22T01:29:09;10.40;99.90
32322;DHT22;61553;48.994;8.940;2022-12-22T01:31:53;10.30;99.90
32322;DHT22;61553;48.994;8.940;2022-12-22T01:34:38;10.30;99.90
32322;DHT22;61553;48.994;8.940;2022-12-22T01:37:22;10.30;99.90
32322;DHT22;61553;48.994;8.940;2022-12-22T01:40:17;10.30;99.90
32322;DHT22;61553;48.994;8.940;2022-12-22T01:43:04;10.30;99.90
32322;DHT22;61553;48.994;8.940;2022-12-22T01:46:19;10.30;99.90
32322;DHT22;61553;48.994;8.940;2022-12-22T01:49:07;10.20;99.90
32322;DHT22;61553;48.994;8.940;2022-12-22T01:51:52;10.30;99.90
32322;DHT22;61553;48.994;8.940;2022-12-22T01:54:36;10.20;99.90
32322;DHT22;61553;48.994;8.940;2022-12-22T01:57:20;10.30;99.90
32322;DHT22;61553;48.994;8.940;2022-12-22T02:00:05;10.30;99.90
32322;DHT22;61553;48.994;8.940;2022-12-22T02:02:49;10.30;99.90
32322;DHT22;61553;48.994;8.940;2022-12-22T02:05:35;10.30;99.90
32322;DHT22;61553;48.994;8.940;2022-12-22T02:08:26;10.30;99.90
32322;DHT22;61553;48.994;8.940;2022-12-22T02:11:42;10.30;99.90
32322;DHT22;61553;48.994;8.940;2022-12-22T02:14:39;10.30;99.90
32322;DHT22;61553;48.994;8.940;2022-12-22T02:17:34;10.30;99.90
32322;DHT22;61553;48.994;8.940;2022-12-22T02:20:53;10.30;99.90
32322;DHT22;61553;48.994;8.940;2022-12-22T02:26:51;10.30;99.90
32322;DHT22;61553;48.994;8.940;2022-12-22T02:29:47;10.20;99.90
32322;DHT22;61553;48.994;8.940;2022-12-22T02:32:34;10.20;99.90
32322;DHT22;61553;48.994;8.940;2022-12-22T02:35:19;10.10;99.90
32322;DHT22;61553;48.994;8.940;2022-12-22T02:38:21;10.10;99.90
32322;DHT22;61553;48.994;8.940;2022-12-22T02:41:14;10.10;99.90
32322;DHT22;61553;48.994;8.940;2022-12-22T02:44:27;10.00;99.90
32322;DHT22;61553;48.994;8.940;2022-12-22T02:47:22;10.00;99.90
32322;DHT22;61553;48.994;8.940;2022-12-22T02:50:30;9.90;99.90
32322;DHT22;61553;48.994;8.940;2022-12-22T02:53:18;9.80;99.90
32322;DHT22;61553;48.994;8.940;2022-12-22T02:56:23;9.70;99.90
32322;DHT22;61553;48.994;8.940;2022-12-22T02:59:07;9.60;99.90
32322;DHT22;61553;48.994;8.940;2022-12-22T03:01:51;9.60;99.90
32322;DHT22;61553;48.994;8.940;2022-12-22T03:04:35;9.70;99.90
32322;DHT22;61553;48.994;8.940;2022-12-22T03:07:19;9.70;99.90
32322;DHT22;61553;48.994;8.940;2022-12-22T03:10:04;9.70;99.90
32322;DHT22;61553;48.994;8.940;2022-12-22T03:12:48;9.80;99.90
32322;DHT22;61553;48.994;8.940;2022-12-22T03:15:32;9.70;99.90
32322;DHT22;61553;48.994;8.940;2022-12-22T03:18:16;9.80;99.90
32322;DHT22;61553;48.994;8.940;2022-12-22T03:21:00;9.80;99.90
32322;DHT22;61553;48.994;8.940;2022-12-22T03:23:44;9.80;99.90
32322;DHT22;61553;48.994;8.940;2022-12-22T03:26:28;9.70;99.90
32322;DHT22;61553;48.994;8.940;2022-12-22T03:28:54;9.60;99.90
32322;DHT22;61553;48.994;8.940;2022-12-22T03:31:20;9.60;99.90
32322;DHT22;61553;48.994;8.940;2022-12-22T03:33:46;9.70;99.90
32322;DHT22;61553;48.994;8.940;2022-12-22T03:36:12;9.70;99.90
32322;DHT22;61553;48.994;8.940;2022-12-22T03:38:37;9.70;99.90
32322;DHT22;61553;48.994;8.940;2022-12-22T03:41:03;9.70;99.90
32322;DHT22;61553;48.994;8.940;2022-12-22T03:43:29;9.70;99.90
32322;DHT22;61553;48.994;8.940;2022-12-22T03:46:16;9.80;99.90
32322;DHT22;61553;48.994;8.940;2022-12-22T03:48:45;9.90;99.90
32322;DHT22;61553;48.994;8.940;2022-12-22T03:51:30;9.90;99.90
32322;DHT22;61553;48.994;8.940;2022-12-22T03:53:55;10.00;99.90
32322;DHT22;61553;48.994;8.940;2022-12-22T03:56:21;10.00;99.90
32322;DHT22;61553;48.994;8.940;2022-12-22T03:58:47;10.00;99.90
32322;DHT22;61553;48.994;8.940;2022-12-22T04:01:12;10.00;99.90
32322;DHT22;61553;48.994;8.940;2022-12-22T04:03:38;10.10;99.90
32322;DHT22;61553;48.994;8.940;2022-12-22T04:06:03;10.10;99.90
32322;DHT22;61553;48.994;8.940;2022-12-22T04:08:29;10.10;99.90
32322;DHT22;61553;48.994;8.940;2022-12-22T04:10:55;10.10;99.90
32322;DHT22;61553;48.994;8.940;2022-12-22T04:13:39;10.10;99.90
32322;DHT22;61553;48.994;8.940;2022-12-22T04:16:04;10.10;99.90
32322;DHT22;61553;48.994;8.940;2022-12-22T04:18:30;10.00;99.90
32322;DHT22;61553;48.994;8.940;2022-12-22T04:20:56;10.00;99.90
32322;DHT22;61553;48.994;8.940;2022-12-22T04:23:21;10.00;99.90
32322;DHT22;61553;48.994;8.940;2022-12-22T04:25:47;10.00;99.90
32322;DHT22;61553;48.994;8.940;2022-12-22T04:28:13;10.00;99.90
32322;DHT22;61553;48.994;8.940;2022-12-22T04:30:38;10.00;99.90
32322;DHT22;61553;48.994;8.940;2022-12-22T04:33:04;10.00;99.90
32322;DHT22;61553;48.994;8.940;2022-12-22T04:35:29;10.00;99.90
32322;DHT22;61553;48.994;8.940;2022-12-22T04:37:55;10.00;99.90
32322;DHT22;61553;48.994;8.940;2022-12-22T04:40:21;10.00;99.90
32322;DHT22;61553;48.994;8.940;2022-12-22T04:42:46;10.10;99.90
32322;DHT22;61553;48.994;8.940;2022-12-22T04:45:12;10.30;99.90
32322;DHT22;61553;48.994;8.940;2022-12-22T04:47:37;10.30;99.90
32322;DHT22;61553;48.994;8.940;2022-12-22T04:50:03;10.30;99.90
32322;DHT22;61553;48.994;8.940;2022-12-22T04:52:29;10.30;99.90
32322;DHT22;61553;48.994;8.940;2022-12-22T04:54:55;10.30;99.90
32322;DHT22;61553;48.994;8.940;2022-12-22T04:57:20;10.30;99.90
32322;DHT22;61553;48.994;8.940;2022-12-22T04:59:46;10.30;99.90
32322;DHT22;61553;48.994;8.940;2022-12-22T05:02:12;10.30;99.90
32322;DHT22;61553;48.994;8.940;2022-12-22T05:04:37;10.30;99.90
32322;DHT22;61553;48.994;8.940;2022-12-22T05:07:04;10.40;99.90
32322;DHT22;61553;48.994;8.940;2022-12-22T05:09:29;10.40;99.90
32322;DHT22;61553;48.994;8.940;2022-12-22T05:11:55;10.40;99.90
32322;DHT22;61553;48.994;8.940;2022-12-22T05:14:21;10.40;99.90
32322;DHT22;61553;48.994;8.940;2022-12-22T05:16:46;10.30;99.90
32322;DHT22;61553;48.994;8.940;2022-12-22T05:19:12;10.30;99.90
32322;DHT22;61553;48.994;8.940;2022-12-22T05:21:37;10.30;99.90
32322;DHT22;61553;48.994;8.940;2022-12-22T05:24:03;10.30;99.90
32322;DHT22;61553;48.994;8.940;2022-12-22T05:26:29;10.30;99.90
32322;DHT22;61553;48.994;8.940;2022-12-22T05:28:55;10.30;99.90
32322;DHT22;61553;48.994;8.940;2022-12-22T05:31:22;10.30;99.90
32322;DHT22;61553;48.994;8.940;2022-12-22T05:33:49;10.30;99.90
32322;DHT22;61553;48.994;8.940;2022-12-22T05:36:15;10.30;99.90
32322;DHT22;61553;48.994;8.940;2022-12-22T05:38:40;10.30;99.90
32322;DHT22;61553;48.994;8.940;2022-12-22T05:41:07;10.40;99.90
32322;DHT22;61553;48.994;8.940;2022-12-22T05:43:33;10.40;99.90
32322;DHT22;61553;48.994;8.940;2022-12-22T05:46:07;10.40;99.90
32322;DHT22;61553;48.994;8.940;2022-12-22T05:48:33;10.40;99.90
32322;DHT22;61553;48.994;8.940;2022-12-22T05:50:59;10.40;99.90
32322;DHT22;61553;48.994;8.940;2022-12-22T05:53:24;10.30;99.90
32322;DHT22;61553;48.994;8.940;2022-12-22T05:55:50;10.20;99.90
32322;DHT22;61553;48.994;8.940;2022-12-22T05:58:17;10.10;99.90
32322;DHT22;61553;48.994;8.940;2022-12-22T06:00:43;9.90;99.90
32322;DHT22;61553;48.994;8.940;2022-12-22T06:03:08;9.80;99.90
32322;DHT22;61553;48.994;8.940;2022-12-22T06:05:34;9.60;99.90
32322;DHT22;61553;48.994;8.940;2022-12-22T06:08:00;9.50;99.90
32322;DHT22;61553;48.994;8.940;2022-12-22T06:10:25;9.40;99.90
32322;DHT22;61553;48.994;8.940;2022-12-22T06:12:51;9.30;99.90
32322;DHT22;61553;48.994;8.940;2022-12-22T06:15:17;9.30;99.90
32322;DHT22;61553;48.994;8.940;2022-12-22T06:17:42;9.30;99.90
32322;DHT22;61553;48.994;8.940;2022-12-22T06:20:08;9.30;99.90
32322;DHT22;61553;48.994;8.940;2022-12-22T06:22:34;9.40;99.90
32322;DHT22;61553;48.994;8.940;2022-12-22T06:25:00;9.60;99.90
32322;DHT22;61553;48.994;8.940;2022-12-22T06:27:26;9.80;99.90
32322;DHT22;61553;48.994;8.940;2022-12-22T06:29:51;9.90;99.90
32322;DHT22;61553;48.994;8.940;2022-12-22T06:32:17;9.90;99.90
32322;DHT22;61553;48.994;8.940;2022-12-22T06:34:43;10.00;99.90
32322;DHT22;61553;48.994;8.940;2022-12-22T06:37:08;10.00;99.90
32322;DHT22;61553;48.994;8.940;2022-12-22T06:39:34;9.90;99.90
32322;DHT22;61553;48.994;8.940;2022-12-22T06:41:59;10.00;99.90
32322;DHT22;61553;48.994;8.940;2022-12-22T06:44:44;10.10;99.90
32322;DHT22;61553;48.994;8.940;2022-12-22T06:47:09;10.20;99.90
32322;DHT22;61553;48.994;8.940;2022-12-22T06:49:35;10.30;99.90
32322;DHT22;61553;48.994;8.940;2022-12-22T06:52:01;10.20;99.90
32322;DHT22;61553;48.994;8.940;2022-12-22T06:54:26;10.30;99.90
32322;DHT22;61553;48.994;8.940;2022-12-22T06:56:52;10.40;99.90
32322;DHT22;61553;48.994;8.940;2022-12-22T06:59:18;10.50;99.90
32322;DHT22;61553;48.994;8.940;2022-12-22T07:01:43;10.60;99.90
32322;DHT22;61553;48.994;8.940;2022-12-22T07:04:09;10.60;99.90
32322;DHT22;61553;48.994;8.940;2022-12-22T07:06:35;10.70;99.90
32322;DHT22;61553;48.994;8.940;2022-12-22T07:09:01;10.70;99.90
32322;DHT22;61553;48.994;8.940;2022-12-22T07:11:27;10.70;99.90
32322;DHT22;61553;48.994;8.940;2022-12-22T07:13:53;10.80;99.90
32322;DHT22;61553;48.994;8.940;2022-12-22T07:16:19;10.80;99.90
32322;DHT22;61553;48.994;8.940;2022-12-22T07:18:45;10.80;99.90
32322;DHT22;61553;48.994;8.940;2022-12-22T07:21:12;10.90;99.90
32322;DHT22;61553;48.994;8.940;2022-12-22T07:23:39;10.90;99.90
32322;DHT22;61553;48.994;8.940;2022-12-22T07:26:06;10.90;99.90
32322;DHT22;61553;48.994;8.940;2022-12-22T07:28:36;11.00;99.90
32322;DHT22;61553;48.994;8.940;2022-12-22T07:31:04;11.10;99.90
32322;DHT22;61553;48.994;8.940;2022-12-22T07:33:30;11.00;99.90
32322;DHT22;61553;48.994;8.940;2022-12-22T07:36:04;11.20;99.90
32322;DHT22;61553;48.994;8.940;2022-12-22T07:38:32;11.20;99.90
32322;DHT22;61553;48.994;8.940;2022-12-22T07:40:57;11.20;99.90
32322;DHT22;61553;48.994;8.940;2022-12-22T07:43:23;11.30;99.90
32322;DHT22;61553;48.994;8.940;2022-12-22T07:45:49;11.30;99.90
32322;DHT22;61553;48.994;8.940;2022-12-22T07:48:15;11.30;99.90
32322;DHT22;61553;48.994;8.940;2022-12-22T07:51:04;11.40;99.90
32322;DHT22;61553;48.994;8.940;2022-12-22T07:53:32;11.30;99.90
32322;DHT22;61553;48.994;8.940;2022-12-22T07:56:01;11.30;99.90
32322;DHT22;61553;48.994;8.940;2022-12-22T07:58:27;11.40;99.90
32322;DHT22;61553;48.994;8.940;2022-12-22T08:00:58;11.50;99.90
32322;DHT22;61553;48.994;8.940;2022-12-22T08:03:24;11.50;99.90
32322;DHT22;61553;48.994;8.940;2022-12-22T08:05:49;11.60;99.90
32322;DHT22;61553;48.994;8.940;2022-12-22T08:08:15;11.60;99.90
32322;DHT22;61553;48.994;8.940;2022-12-22T08:10:40;11.70;99.90
32322;DHT22;61553;48.994;8.940;2022-12-22T08:13:06;11.70;99.90
32322;DHT22;61553;48.994;8.940;2022-12-22T08:15:32;11.80;99.90
32322;DHT22;61553;48.994;8.940;2022-12-22T08:17:57;11.90;99.90
32322;DHT22;61553;48.994;8.940;2022-12-22T08:20:23;12.00;99.90
32322;DHT22;61553;48.994;8.940;2022-12-22T08:22:48;12.00;99.90
32322;DHT22;61553;48.994;8.940;2022-12-22T08:25:14;12.10;99.90
32322;DHT22;61553;48.994;8.940;2022-12-22T08:27:49;12.10;99.90
32322;DHT22;61553;48.994;8.940;2022-12-22T08:30:16;12.00;99.90
32322;DHT22;61553;48.994;8.940;2022-12-22T08:32:42;12.00;99.90
32322;DHT22;61553;48.994;8.940;2022-12-22T08:35:10;12.10;99.90
32322;DHT22;61553;48.994;8.940;2022-12-22T08:37:39;12.10;99.90
32322;DHT22;61553;48.994;8.940;2022-12-22T08:40:09;12.10;99.90
32322;DHT22;61553;48.994;8.940;2022-12-22T08:42:36;12.10;99.90
32322;DHT22;61553;48.994;8.940;2022-12-22T08:45:03;12.10;99.90
32322;DHT22;61553;48.994;8.940;2022-12-22T08:47:28;12.00;99.90
32322;DHT22;61553;48.994;8.940;2022-12-22T08:49:54;12.00;99.90
32322;DHT22;61553;48.994;8.940;2022-12-22T08:52:19;11.90;99.90
32322;DHT22;61553;48.994;8.940;2022-12-22T08:54:45;11.90;99.90
32322;DHT22;61553;48.994;8.940;2022-12-22T08:57:11;11.90;99.90
32322;DHT22;61553;48.994;8.940;2022-12-22T08:59:37;12.00;99.90
32322;DHT22;61553;48.994;8.940;2022-12-22T09:02:02;12.00;99.90
32322;DHT22;61553;48.994;8.940;2022-12-22T09:04:30;12.00;99.90
32322;DHT22;61553;48.994;8.940;2022-12-22T09:06:57;12.10;99.90
32322;DHT22;61553;48.994;8.940;2022-12-22T09:09:23;12.10;99.90
32322;DHT22;61553;48.994;8.940;2022-12-22T09:11:48;12.00;99.90
32322;DHT22;61553;48.994;8.940;2022-12-22T09:14:14;12.00;99.90
32322;DHT22;61553;48.994;8.940;2022-12-22T09:16:40;12.00;99.90
32322;DHT22;61553;48.994;8.940;2022-12-22T09:19:06;11.80;99.90
32322;DHT22;61553;48.994;8.940;2022-12-22T09:21:33;11.70;99.90
32322;DHT22;61553;48.994;8.940;2022-12-22T09:23:59;11.60;99.90
32322;DHT22;61553;48.994;8.940;2022-12-22T09:26:26;11.50;99.90
32322;DHT22;61553;48.994;8.940;2022-12-22T09:28:52;11.50;99.90
32322;DHT22;61553;48.994;8.940;2022-12-22T09:31:20;11.50;99.90
32322;DHT22;61553;48.994;8.940;2022-12-22T09:33:46;11.50;99.90
32322;DHT22;61553;48.994;8.940;2022-12-22T09:36:14;11.60;99.90
32322;DHT22;61553;48.994;8.940;2022-12-22T09:38:41;11.50;99.90
32322;DHT22;61553;48.994;8.940;2022-12-22T09:41:17;11.50;99.90
32322;DHT22;61553;48.994;8.940;2022-12-22T09:43:43;11.40;99.90
32322;DHT22;61553;48.994;8.940;2022-12-22T09:46:21;11.30;99.90
32322;DHT22;61553;48.994;8.940;2022-12-22T09:48:47;11.30;99.90
32322;DHT22;61553;48.994;8.940;2022-12-22T09:51:14;11.20;99.90
32322;DHT22;61553;48.994;8.940;2022-12-22T09:53:42;11.20;99.90
32322;DHT22;61553;48.994;8.940;2022-12-22T09:56:12;11.20;99.90
32322;DHT22;61553;48.994;8.940;2022-12-22T09:58:39;11.10;99.90
32322;DHT22;61553;48.994;8.940;2022-12-22T10:04:28;11.10;99.90
32322;DHT22;61553;48.994;8.940;2022-12-22T10:09:34;11.20;99.90
32322;DHT22;61553;48.994;8.940;2022-12-22T10:12:03;11.20;99.90
32322;DHT22;61553;48.994;8.940;2022-12-22T10:14:32;11.20;99.90
32322;DHT22;61553;48.994;8.940;2022-12-22T10:19:43;11.20;99.90
32322;DHT22;61553;48.994;8.940;2022-12-22T10:22:26;11.10;99.90
32322;DHT22;61553;48.994;8.940;2022-12-22T10:24:53;11.10;99.90
32322;DHT22;61553;48.994;8.940;2022-12-22T10:27:21;11.00;99.90
32322;DHT22;61553;48.994;8.940;2022-12-22T10:29:48;11.00;99.90
32322;DHT22;61553;48.994;8.940;2022-12-22T10:32:16;11.00;99.90
32322;DHT22;61553;48.994;8.940;2022-12-22T10:35:03;10.90;99.90
32322;DHT22;61553;48.994;8.940;2022-12-22T10:37:35;11.00;99.90
32322;DHT22;61553;48.994;8.940;2022-12-22T10:40:17;11.00;99.90
32322;DHT22;61553;48.994;8.940;2022-12-22T10:42:54;10.90;99.90
32322;DHT22;61553;48.994;8.940;2022-12-22T10:45:25;10.90;99.90
32322;DHT22;61553;48.994;8.940;2022-12-22T10:47:53;10.90;99.90
32322;DHT22;61553;48.994;8.940;2022-12-22T10:50:21;10.90;99.90
32322;DHT22;61553;48.994;8.940;2022-12-22T10:52:55;10.90;99.90
32322;DHT22;61553;48.994;8.940;2022-12-22T10:55:24;10.90;99.90
32322;DHT22;61553;48.994;8.940;2022-12-22T10:57:51;11.00;99.90
32322;DHT22;61553;48.994;8.940;2022-12-22T11:00:29;11.00;99.90
32322;DHT22;61553;48.994;8.940;2022-12-22T11:02:57;11.00;99.90
32322;DHT22;61553;48.994;8.940;2022-12-22T11:05:24;11.00;99.90
32322;DHT22;61553;48.994;8.940;2022-12-22T11:07:50;11.00;99.90
32322;DHT22;61553;48.994;8.940;2022-12-22T11:10:17;10.90;99.90
32322;DHT22;61553;48.994;8.940;2022-12-22T11:15:44;11.00;99.90
32322;DHT22;61553;48.994;8.940;2022-12-22T11:18:41;11.00;99.90
32322;DHT22;61553;48.994;8.940;2022-12-22T11:23:55;11.30;99.90
32322;DHT22;61553;48.994;8.940;2022-12-22T11:26:42;11.40;99.90
32322;DHT22;61553;48.994;8.940;2022-12-22T11:29:54;11.60;99.90
32322;DHT22;61553;48.994;8.940;2022-12-22T11:32:43;11.80;99.90
32322;DHT22;61553;48.994;8.940;2022-12-22T11:40:54;11.90;99.90
32322;DHT22;61553;48.994;8.940;2022-12-22T11:46:26;12.10;99.90
32322;DHT22;61553;48.994;8.940;2022-12-22T11:49:10;12.10;99.90
32322;DHT22;61553;48.994;8.940;2022-12-22T12:00:08;11.80;99.90
32322;DHT22;61553;48.994;8.940;2022-12-22T12:10:47;11.40;99.90
32322;DHT22;61553;48.994;8.940;2022-12-22T12:13:32;11.50;99.90
32322;DHT22;61553;48.994;8.940;2022-12-22T12:19:16;11.90;99.90
32322;DHT22;61553;48.994;8.940;2022-12-22T12:21:57;12.20;99.90
32322;DHT22;61553;48.994;8.940;2022-12-22T12:38:14;11.50;99.90
32322;DHT22;61553;48.994;8.940;2022-12-22T12:40:50;11.50;99.90
32322;DHT22;61553;48.994;8.940;2022-12-22T12:43:17;11.40;99.90
32322;DHT22;61553;48.994;8.940;2022-12-22T12:45:45;11.30;99.90
32322;DHT22;61553;48.994;8.940;2022-12-22T12:48:35;11.10;99.90
32322;DHT22;61553;48.994;8.940;2022-12-22T12:51:01;10.90;99.90
32322;DHT22;61553;48.994;8.940;2022-12-22T12:53:28;10.80;99.90
32322;DHT22;61553;48.994;8.940;2022-12-22T13:01:00;10.70;99.90
32322;DHT22;61553;48.994;8.940;2022-12-22T13:05:54;10.80;99.90
32322;DHT22;61553;48.994;8.940;2022-12-22T13:18:41;10.80;99.90
32322;DHT22;61553;48.994;8.940;2022-12-22T13:26:27;10.80;99.90
32322;DHT22;61553;48.994;8.940;2022-12-22T13:36:48;10.80;99.90
32322;DHT22;61553;48.994;8.940;2022-12-22T13:39:15;10.70;99.90
32322;DHT22;61553;48.994;8.940;2022-12-22T13:41:43;10.70;99.90
32322;DHT22;61553;48.994;8.940;2022-12-22T13:44:19;10.70;99.90
32322;DHT22;61553;48.994;8.940;2022-12-22T13:46:46;10.70;99.90
32322;DHT22;61553;48.994;8.940;2022-12-22T13:49:15;10.60;99.90
32322;DHT22;61553;48.994;8.940;2022-12-22T13:51:42;10.60;99.90
32322;DHT22;61553;48.994;8.940;2022-12-22T13:58:59;10.70;99.90
32322;DHT22;61553;48.994;8.940;2022-12-22T14:01:26;10.70;99.90
32322;DHT22;61553;48.994;8.940;2022-12-22T14:03:59;10.80;99.90
32322;DHT22;61553;48.994;8.940;2022-12-22T14:08:53;10.80;99.90
32322;DHT22;61553;48.994;8.940;2022-12-22T14:11:19;10.90;99.90
32322;DHT22;61553;48.994;8.940;2022-12-22T14:13:45;10.90;99.90
32322;DHT22;61553;48.994;8.940;2022-12-22T14:16:13;10.90;99.90
32322;DHT22;61553;48.994;8.940;2022-12-22T14:18:40;10.90;99.90
32322;DHT22;61553;48.994;8.940;2022-12-22T14:21:06;10.90;99.90
32322;DHT22;61553;48.994;8.940;2022-12-22T14:23:38;10.80;99.90
32322;DHT22;61553;48.994;8.940;2022-12-22T14:26:06;10.80;99.90
32322;DHT22;61553;48.994;8.940;2022-12-22T14:28:38;10.80;99.90
32322;DHT22;61553;48.994;8.940;2022-12-22T14:31:11;10.70;99.90
32322;DHT22;61553;48.994;8.940;2022-12-22T14:33:37;10.70;99.90
32322;DHT22;61553;48.994;8.940;2022-12-22T14:36:14;10.70;99.90
32322;DHT22;61553;48.994;8.940;2022-12-22T14:38:52;10.60;99.90
32322;DHT22;61553;48.994;8.940;2022-12-22T14:44:03;10.60;99.90
32322;DHT22;61553;48.994;8.940;2022-12-22T14:46:29;10.50;99.90
32322;DHT22;61553;48.994;8.940;2022-12-22T14:48:57;10.50;99.90
32322;DHT22;61553;48.994;8.940;2022-12-22T14:51:22;10.50;99.90
32322;DHT22;61553;48.994;8.940;2022-12-22T14:53:49;10.50;99.90
32322;DHT22;61553;48.994;8.940;2022-12-22T14:56:16;10.50;99.90
32322;DHT22;61553;48.994;8.940;2022-12-22T14:58:44;10.50;99.90
32322;DHT22;61553;48.994;8.940;2022-12-22T15:01:25;10.50;99.90
32322;DHT22;61553;48.994;8.940;2022-12-22T15:09:07;10.40;99.90
32322;DHT22;61553;48.994;8.940;2022-12-22T15:11:37;10.30;99.90
32322;DHT22;61553;48.994;8.940;2022-12-22T15:14:09;10.30;99.90
32322;DHT22;61553;48.994;8.940;2022-12-22T15:16:35;10.30;99.90
32322;DHT22;61553;48.994;8.940;2022-12-22T15:19:03;10.20;99.90
32322;DHT22;61553;48.994;8.940;2022-12-22T15:21:29;10.20;99.90
32322;DHT22;61553;48.994;8.940;2022-12-22T15:23:56;10.20;99.90
32322;DHT22;61553;48.994;8.940;2022-12-22T15:26:21;10.10;99.90
32322;DHT22;61553;48.994;8.940;2022-12-22T15:28:47;10.00;99.90
32322;DHT22;61553;48.994;8.940;2022-12-22T15:31:14;10.00;99.90
32322;DHT22;61553;48.994;8.940;2022-12-22T15:33:40;10.00;99.90
32322;DHT22;61553;48.994;8.940;2022-12-22T15:36:10;10.00;99.90
32322;DHT22;61553;48.994;8.940;2022-12-22T15:38:36;10.00;99.90
32322;DHT22;61553;48.994;8.940;2022-12-22T15:41:03;10.00;99.90
32322;DHT22;61553;48.994;8.940;2022-12-22T15:43:29;10.00;99.90
32322;DHT22;61553;48.994;8.940;2022-12-22T15:45:54;10.00;99.90
32322;DHT22;61553;48.994;8.940;2022-12-22T15:48:24;10.00;99.90
32322;DHT22;61553;48.994;8.940;2022-12-22T15:50:52;9.90;99.90
32322;DHT22;61553;48.994;8.940;2022-12-22T15:53:19;9.90;99.90
32322;DHT22;61553;48.994;8.940;2022-12-22T15:55:49;9.90;99.90
32322;DHT22;61553;48.994;8.940;2022-12-22T15:58:18;9.80;99.90
32322;DHT22;61553;48.994;8.940;2022-12-22T16:00:44;9.80;99.90
32322;DHT22;61553;48.994;8.940;2022-12-22T16:03:11;9.80;99.90
32322;DHT22;61553;48.994;8.940;2022-12-22T16:05:37;9.80;99.90
32322;DHT22;61553;48.994;8.940;2022-12-22T16:08:14;9.90;99.90
32322;DHT22;61553;48.994;8.940;2022-12-22T16:10:41;9.80;99.90
32322;DHT22;61553;48.994;8.940;2022-12-22T16:13:11;9.80;99.90
32322;DHT22;61553;48.994;8.940;2022-12-22T16:15:38;9.70;99.90
32322;DHT22;61553;48.994;8.940;2022-12-22T16:18:04;9.60;99.90
32322;DHT22;61553;48.994;8.940;2022-12-22T16:20:35;9.50;99.90
32322;DHT22;61553;48.994;8.940;2022-12-22T16:23:01;9.50;99.90
32322;DHT22;61553;48.994;8.940;2022-12-22T16:25:32;9.50;99.90
32322;DHT22;61553;48.994;8.940;2022-12-22T16:28:01;9.50;99.90
32322;DHT22;61553;48.994;8.940;2022-12-22T16:30:29;9.50;99.90
32322;DHT22;61553;48.994;8.940;2022-12-22T16:32:56;9.50;99.90
32322;DHT22;61553;48.994;8.940;2022-12-22T16:35:27;9.40;99.90
32322;DHT22;61553;48.994;8.940;2022-12-22T16:37:57;9.50;99.90
32322;DHT22;61553;48.994;8.940;2022-12-22T16:40:24;9.40;99.90
32322;DHT22;61553;48.994;8.940;2022-12-22T16:42:58;9.30;99.90
32322;DHT22;61553;48.994;8.940;2022-12-22T16:45:30;9.20;99.90
32322;DHT22;61553;48.994;8.940;2022-12-22T16:48:00;9.30;99.90
32322;DHT22;61553;48.994;8.940;2022-12-22T16:50:29;9.30;99.90
32322;DHT22;61553;48.994;8.940;2022-12-22T16:53:04;9.30;99.90
32322;DHT22;61553;48.994;8.940;2022-12-22T16:55:30;9.40;99.90
32322;DHT22;61553;48.994;8.940;2022-12-22T16:57:57;9.40;99.90
32322;DHT22;61553;48.994;8.940;2022-12-22T17:00:25;9.40;99.90
32322;DHT22;61553;48.994;8.940;2022-12-22T17:02:56;9.50;99.90
32322;DHT22;61553;48.994;8.940;2022-12-22T17:05:28;9.40;99.90
32322;DHT22;61553;48.994;8.940;2022-12-22T17:07:55;9.40;99.90
32322;DHT22;61553;48.994;8.940;2022-12-22T17:10:22;9.40;99.90
32322;DHT22;61553;48.994;8.940;2022-12-22T17:12:49;9.30;99.90
32322;DHT22;61553;48.994;8.940;2022-12-22T17:15:20;9.30;99.90
32322;DHT22;61553;48.994;8.940;2022-12-22T17:17:47;9.30;99.90
32322;DHT22;61553;48.994;8.940;2022-12-22T17:20:25;9.30;99.90
32322;DHT22;61553;48.994;8.940;2022-12-22T17:23:02;9.30;99.90
32322;DHT22;61553;48.994;8.940;2022-12-22T17:25:29;9.20;99.90
32322;DHT22;61553;48.994;8.940;2022-12-22T17:27:56;9.20;99.90
32322;DHT22;61553;48.994;8.940;2022-12-22T17:30:24;9.20;99.90
32322;DHT22;61553;48.994;8.940;2022-12-22T17:32:51;9.20;99.90
32322;DHT22;61553;48.994;8.940;2022-12-22T17:35:25;9.20;99.90
32322;DHT22;61553;48.994;8.940;2022-12-22T17:37:53;9.10;99.90
32322;DHT22;61553;48.994;8.940;2022-12-22T17:40:25;9.10;99.90
32322;DHT22;61553;48.994;8.940;2022-12-22T17:42:52;9.00;99.90
32322;DHT22;61553;48.994;8.940;2022-12-22T17:45:19;9.00;99.90
32322;DHT22;61553;48.994;8.940;2022-12-22T17:47:45;9.00;99.90
32322;DHT22;61553;48.994;8.940;2022-12-22T17:50:19;9.00;99.90
32322;DHT22;61553;48.994;8.940;2022-12-22T17:52:45;9.00;99.90